Time;durP1;ratioP1;P1;durP2;ratioP2;P2;SDS_P1;SDS_P2;PMS_P1;PMS_P2;Temp;Humidity;BMP_temperature;BMP_pressure;BME280_temperature;BME280_humidity;BME280_pressure;Samples;Min_cycle;Max_cycle;Signal;HPM_P1;HPM_P2
2023/10/21 00:02:14;;;;;;;4.17;1.43;;;12.20;99.90;;;;;;5097152;28;20253;-81
2023/10/21 00:04:40;;;;;;;5.33;1.43;;;12.20;99.90;;;;;;5097511;28;20634;-81
2023/10/21 00:07:05;;;;;;;4.37;1.30;;;12.20;99.90;;;;;;5095920;28;20166;-81
2023/10/21 00:09:31;;;;;;;2.60;1.30;;;12.20;99.90;;;;;;5097409;28;20541;-80
2023/10/21 00:11:57;;;;;;;3.87;1.63;;;12.20;99.90;;;;;;5088659;28;20210;-82
2023/10/21 00:14:22;;;;;;;4.97;1.30;;;12.20;99.90;;;;;;5079029;28;20167;-81
2023/10/21 00:16:52;;;;;;;4.77;1.50;;;12.20;99.90;;;;;;5079450;28;20171;-80
2023/10/21 00:19:17;;;;;;;2.50;1.57;;;12.20;99.90;;;;;;5079950;28;20254;-81
2023/10/21 00:21:43;;;;;;;5.73;1.43;;;12.20;99.90;;;;;;5080352;28;20229;-80
2023/10/21 00:24:09;;;;;;;5.57;2.17;;;12.20;99.90;;;;;;5076243;28;20253;-80
2023/10/21 00:26:47;;;;;;;5.60;1.50;;;12.20;99.90;;;;;;5076108;28;20178;-80
2023/10/21 00:29:13;;;;;;;4.63;1.70;;;12.30;99.90;;;;;;5086971;28;20752;-80
2023/10/21 00:31:38;;;;;;;7.83;2.07;;;12.30;99.90;;;;;;5098251;28;20603;-80
2023/10/21 00:34:04;;;;;;;6.90;1.60;;;12.30;99.90;;;;;;5098056;28;20251;-80
2023/10/21 00:36:29;;;;;;;4.87;1.50;;;12.30;99.90;;;;;;5097006;28;20715;-80
2023/10/21 00:38:55;;;;;;;1.60;1.23;;;12.30;99.90;;;;;;5099678;28;20167;-81
2023/10/21 00:41:21;;;;;;;3.53;1.23;;;12.30;99.90;;;;;;5098888;28;20216;-80
2023/10/21 00:43:46;;;;;;;3.87;1.50;;;12.40;99.90;;;;;;5096835;28;20355;-80
2023/10/21 00:46:17;;;;;;;1.50;1.40;;;12.40;99.90;;;;;;5073378;28;20179;-81
2023/10/21 00:48:44;;;;;;;2.73;1.27;;;12.40;99.90;;;;;;5056066;28;20172;-81
2023/10/21 00:51:10;;;;;;;3.90;1.20;;;12.40;99.90;;;;;;5056202;28;20199;-82
2023/10/21 00:53:37;;;;;;;7.40;1.50;;;12.40;99.90;;;;;;5056205;28;20663;-82
2023/10/21 00:56:03;;;;;;;2.17;1.23;;;12.40;99.90;;;;;;5055430;28;20191;-81
2023/10/21 00:58:31;;;;;;;2.50;1.20;;;12.50;99.90;;;;;;5056184;28;20195;-81
2023/10/21 01:01:03;;;;;;;5.47;1.30;;;12.50;99.90;;;;;;5055939;28;20175;-81
2023/10/21 01:03:29;;;;;;;4.70;2.00;;;12.50;99.90;;;;;;5055012;28;20257;-81
2023/10/21 01:05:56;;;;;;;3.23;1.30;;;12.50;99.90;;;;;;5054817;28;20543;-81
2023/10/21 01:08:21;;;;;;;2.13;1.03;;;12.50;99.90;;;;;;5056091;28;20205;-81
2023/10/21 01:10:47;;;;;;;1.80;1.20;;;12.50;99.90;;;;;;5056072;28;20228;-81
2023/10/21 01:13:13;;;;;;;3.30;1.33;;;12.50;99.90;;;;;;5074538;28;20562;-82
2023/10/21 01:15:38;;;;;;;2.33;1.20;;;12.50;99.90;;;;;;5075400;28;20557;-82
2023/10/21 01:18:06;;;;;;;3.37;1.40;;;12.60;99.90;;;;;;5073459;28;20202;-81
2023/10/21 01:20:32;;;;;;;4.27;1.30;;;12.50;99.90;;;;;;5076186;28;20201;-81
2023/10/21 01:22:58;;;;;;;2.40;1.17;;;12.60;99.90;;;;;;5075130;28;20228;-81
2023/10/21 01:25:24;;;;;;;3.77;1.33;;;12.50;99.90;;;;;;5073634;28;20175;-82
2023/10/21 01:27:56;;;;;;;4.97;1.40;;;12.60;99.90;;;;;;5074143;28;20178;-82
2023/10/21 01:30:22;;;;;;;4.67;1.13;;;12.50;99.90;;;;;;5075234;28;20240;-82
2023/10/21 01:32:48;;;;;;;5.97;1.50;;;12.50;99.90;;;;;;5074353;28;20194;-82
2023/10/21 01:35:14;;;;;;;3.50;1.40;;;12.60;99.90;;;;;;5073587;28;20189;-82
2023/10/21 01:37:40;;;;;;;3.03;1.27;;;12.60;99.90;;;;;;5076148;28;20167;-82
2023/10/21 01:40:06;;;;;;;3.43;1.13;;;12.50;99.90;;;;;;5073733;28;20550;-82
2023/10/21 01:42:34;;;;;;;1.97;1.10;;;12.60;99.90;;;;;;5075006;28;20635;-82
2023/10/21 01:44:59;;;;;;;2.57;1.10;;;12.60;99.90;;;;;;5074565;28;20178;-81
2023/10/21 01:47:25;;;;;;;4.50;1.30;;;12.60;99.90;;;;;;5073922;28;20191;-81
2023/10/21 01:49:50;;;;;;;2.07;1.20;;;12.60;99.90;;;;;;5074524;28;20274;-82
2023/10/21 01:52:16;;;;;;;1.80;1.17;;;12.60;99.90;;;;;;5090816;28;20209;-81
2023/10/21 01:54:45;;;;;;;5.33;1.33;;;12.60;99.90;;;;;;5093711;28;20178;-82
2023/10/21 01:57:10;;;;;;;4.73;1.30;;;12.60;99.90;;;;;;5094311;28;20273;-81
2023/10/21 01:59:40;;;;;;;4.17;1.10;;;12.60;99.90;;;;;;5095655;28;20173;-82
2023/10/21 02:02:06;;;;;;;3.20;1.40;;;12.50;99.90;;;;;;5093840;28;20231;-81
2023/10/21 02:04:32;;;;;;;6.00;1.47;;;12.60;99.90;;;;;;5094586;28;20182;-82
2023/10/21 02:06:57;;;;;;;4.60;1.30;;;12.60;99.90;;;;;;5088672;28;20202;-81
2023/10/21 02:09:23;;;;;;;7.63;1.57;;;12.60;99.90;;;;;;5074638;28;20286;-81
2023/10/21 02:11:48;;;;;;;1.63;1.20;;;12.60;99.90;;;;;;5075615;28;20291;-81
2023/10/21 02:14:14;;;;;;;2.50;1.20;;;12.60;99.90;;;;;;5075132;28;20191;-81
2023/10/21 02:16:40;;;;;;;8.23;1.30;;;12.60;99.90;;;;;;5073971;28;20186;-82
2023/10/21 02:19:05;;;;;;;4.20;1.40;;;12.60;99.90;;;;;;5074837;28;20167;-81
2023/10/21 02:21:32;;;;;;;2.17;1.37;;;12.60;99.90;;;;;;5073802;28;20228;-81
2023/10/21 02:23:57;;;;;;;4.17;1.50;;;12.60;99.90;;;;;;5072395;28;20256;-82
2023/10/21 02:26:23;;;;;;;3.80;1.70;;;12.60;99.90;;;;;;5073757;28;20187;-81
2023/10/21 02:28:48;;;;;;;3.07;1.10;;;12.70;99.90;;;;;;5055435;28;20199;-82
2023/10/21 02:31:14;;;;;;;3.97;1.50;;;12.60;99.90;;;;;;5055567;28;20203;-81
2023/10/21 02:33:40;;;;;;;3.97;1.90;;;12.70;99.90;;;;;;5056721;28;20219;-81
2023/10/21 02:36:05;;;;;;;4.03;1.50;;;12.70;99.90;;;;;;5054847;28;20163;-81
2023/10/21 02:38:31;;;;;;;6.63;1.63;;;12.70;99.90;;;;;;5055821;28;20217;-81
2023/10/21 02:40:56;;;;;;;3.63;1.37;;;12.70;99.90;;;;;;5068351;28;20180;-81
2023/10/21 02:43:22;;;;;;;11.17;1.77;;;12.70;99.90;;;;;;5071144;28;20279;-81
2023/10/21 02:45:48;;;;;;;5.27;1.70;;;12.70;99.90;;;;;;5075836;28;20193;-81
2023/10/21 02:48:14;;;;;;;3.73;1.60;;;12.80;99.90;;;;;;5095268;28;20206;-80
2023/10/21 02:50:40;;;;;;;1.67;1.40;;;12.70;99.90;;;;;;5095714;28;20166;-81
2023/10/21 02:53:05;;;;;;;3.60;1.80;;;12.80;99.90;;;;;;5093979;28;20194;-81
2023/10/21 02:55:31;;;;;;;8.97;1.87;;;12.80;99.90;;;;;;5087065;28;20252;-81
2023/10/21 02:57:56;;;;;;;4.40;1.90;;;12.80;99.90;;;;;;5075366;28;20177;-81
2023/10/21 03:00:22;;;;;;;7.47;1.97;;;12.80;99.90;;;;;;5074819;28;20710;-81
2023/10/21 03:02:51;;;;;;;5.90;2.17;;;12.80;99.90;;;;;;5074181;28;20351;-82
2023/10/21 03:05:18;;;;;;;4.60;2.30;;;12.80;99.90;;;;;;5074031;28;20179;-81
2023/10/21 03:07:43;;;;;;;6.00;2.30;;;12.80;99.90;;;;;;5078872;28;20179;-82
2023/10/21 03:10:10;;;;;;;7.13;2.70;;;12.90;99.90;;;;;;5078579;28;20181;-81
2023/10/21 03:12:36;;;;;;;7.00;2.60;;;12.80;99.90;;;;;;5091194;28;20210;-81
2023/10/21 03:15:02;;;;;;;7.43;2.70;;;12.80;99.90;;;;;;5098815;28;20204;-81
2023/10/21 03:17:28;;;;;;;4.07;2.43;;;12.90;99.90;;;;;;5099151;28;20186;-81
2023/10/21 03:19:56;;;;;;;3.87;2.50;;;12.90;99.90;;;;;;5099439;28;20180;-81
2023/10/21 03:22:22;;;;;;;10.60;2.87;;;12.80;99.90;;;;;;5099503;28;20204;-81
2023/10/21 03:24:47;;;;;;;4.00;2.23;;;12.90;99.90;;;;;;5104198;28;20198;-82
2023/10/21 03:27:13;;;;;;;3.33;2.10;;;12.90;99.90;;;;;;5094858;28;20266;-81
2023/10/21 03:29:40;;;;;;;3.00;2.20;;;12.90;99.90;;;;;;5097375;28;20186;-81
2023/10/21 03:32:06;;;;;;;4.13;2.40;;;12.90;99.90;;;;;;5098048;28;20611;-81
2023/10/21 03:34:33;;;;;;;3.50;2.17;;;12.90;99.90;;;;;;5096588;28;20184;-81
2023/10/21 03:36:59;;;;;;;3.60;2.27;;;13.10;99.90;;;;;;5096526;28;20182;-80
2023/10/21 03:39:28;;;;;;;4.90;2.30;;;12.90;99.90;;;;;;5096409;28;20209;-81
2023/10/21 03:41:54;;;;;;;6.63;2.37;;;12.90;99.90;;;;;;5097414;28;20247;-82
2023/10/21 03:44:19;;;;;;;5.20;2.37;;;12.90;99.90;;;;;;5076244;28;20609;-81
2023/10/21 03:46:45;;;;;;;4.77;2.17;;;12.90;99.90;;;;;;5056662;28;20263;-81
2023/10/21 03:49:11;;;;;;;4.47;2.30;;;13.00;99.90;;;;;;5057076;28;20305;-81
2023/10/21 03:51:37;;;;;;;6.47;2.10;;;12.90;99.90;;;;;;5055316;28;20222;-81
2023/10/21 03:54:02;;;;;;;2.77;1.97;;;12.90;99.90;;;;;;5057237;28;20597;-81
2023/10/21 03:56:28;;;;;;;5.23;2.50;;;12.90;99.90;;;;;;5057202;28;20175;-81
2023/10/21 03:58:53;;;;;;;5.10;2.33;;;13.00;99.90;;;;;;5072415;28;20172;-81
2023/10/21 04:01:22;;;;;;;4.63;2.20;;;12.90;99.90;;;;;;5078640;28;20178;-81
2023/10/21 04:03:47;;;;;;;5.27;2.53;;;13.00;99.90;;;;;;5097321;28;20296;-80
2023/10/21 04:06:15;;;;;;;4.93;2.53;;;13.00;99.90;;;;;;5097074;28;20257;-81
2023/10/21 04:08:41;;;;;;;4.97;2.57;;;13.00;99.90;;;;;;5095351;28;20178;-82
2023/10/21 04:11:08;;;;;;;2.97;2.57;;;13.00;99.90;;;;;;5096641;28;20657;-81
2023/10/21 04:13:34;;;;;;;5.37;2.50;;;13.00;99.90;;;;;;5096385;28;20182;-81
2023/10/21 04:15:59;;;;;;;4.80;2.70;;;13.00;99.90;;;;;;5093374;28;20637;-81
2023/10/21 04:18:25;;;;;;;6.27;2.80;;;13.00;99.90;;;;;;5054923;28;20179;-81
2023/10/21 04:20:51;;;;;;;6.10;2.73;;;13.00;99.90;;;;;;5054717;28;20730;-81
2023/10/21 04:23:17;;;;;;;3.37;2.60;;;13.00;99.90;;;;;;5056788;28;20199;-80
2023/10/21 04:25:45;;;;;;;4.23;2.77;;;13.00;99.90;;;;;;5056530;28;20701;-81
2023/10/21 04:28:11;;;;;;;5.17;3.10;;;13.00;99.90;;;;;;5056429;28;20550;-81
2023/10/21 04:30:36;;;;;;;7.37;3.17;;;13.00;99.90;;;;;;5056485;28;20172;-81
2023/10/21 04:33:03;;;;;;;6.40;3.20;;;13.00;99.90;;;;;;5073850;28;20699;-81
2023/10/21 04:35:29;;;;;;;8.13;3.20;;;13.10;99.90;;;;;;5094177;28;20174;-81
2023/10/21 04:37:55;;;;;;;6.60;2.80;;;13.00;99.90;;;;;;5095314;28;20177;-81
2023/10/21 04:40:21;;;;;;;7.10;2.73;;;13.00;99.90;;;;;;5094686;28;20586;-80
2023/10/21 04:42:46;;;;;;;9.10;3.37;;;13.00;99.90;;;;;;5094548;28;20335;-80
2023/10/21 04:45:12;;;;;;;6.70;3.03;;;13.00;99.90;;;;;;5094385;28;20227;-80
2023/10/21 04:47:38;;;;;;;7.70;2.90;;;13.10;99.90;;;;;;5095965;28;20205;-79
2023/10/21 04:50:07;;;;;;;7.30;2.73;;;13.10;99.90;;;;;;5107152;28;20186;-80
2023/10/21 04:52:33;;;;;;;3.73;2.70;;;13.10;99.90;;;;;;5094014;28;20312;-80
2023/10/21 04:55:00;;;;;;;5.87;2.90;;;13.20;99.90;;;;;;5055781;28;20168;-81
2023/10/21 04:57:25;;;;;;;7.33;2.90;;;13.10;99.90;;;;;;5054722;28;20593;-80
2023/10/21 04:59:51;;;;;;;5.27;2.80;;;13.10;99.90;;;;;;5055265;28;20246;-80
2023/10/21 05:02:16;;;;;;;6.87;2.90;;;13.10;99.90;;;;;;5055401;28;20261;-81
2023/10/21 05:04:42;;;;;;;7.10;3.70;;;13.10;99.90;;;;;;5055776;28;20217;-80
2023/10/21 05:07:08;;;;;;;8.07;3.87;;;13.10;99.90;;;;;;5062928;28;20194;-80
2023/10/21 05:09:33;;;;;;;5.20;3.13;;;13.10;99.90;;;;;;5076133;28;20222;-80
2023/10/21 05:12:02;;;;;;;8.70;3.27;;;13.10;99.90;;;;;;5075826;28;20198;-81
2023/10/21 05:14:28;;;;;;;6.77;3.30;;;13.10;99.90;;;;;;5074053;28;20175;-81
2023/10/21 05:16:53;;;;;;;5.33;3.17;;;13.00;99.90;;;;;;5074396;28;20202;-81
2023/10/21 05:19:19;;;;;;;6.60;3.10;;;13.10;99.90;;;;;;5075737;28;20174;-81
2023/10/21 05:21:44;;;;;;;6.47;3.00;;;13.10;99.90;;;;;;5076229;28;20179;-81
2023/10/21 05:24:10;;;;;;;7.23;3.40;;;13.00;99.90;;;;;;5073040;28;20251;-81
2023/10/21 05:26:36;;;;;;;7.87;3.20;;;13.00;99.90;;;;;;5055464;28;20180;-81
2023/10/21 05:29:02;;;;;;;4.47;3.07;;;13.00;99.90;;;;;;5054743;28;20196;-81
2023/10/21 05:31:28;;;;;;;4.03;3.13;;;13.00;99.90;;;;;;5052940;28;20199;-81
2023/10/21 05:33:57;;;;;;;8.13;3.20;;;13.00;99.90;;;;;;5053501;28;20192;-81
2023/10/21 05:36:23;;;;;;;8.87;2.80;;;12.90;99.90;;;;;;5055268;28;20241;-79
2023/10/21 05:38:49;;;;;;;6.93;3.03;;;12.90;99.90;;;;;;5053642;28;20285;-81
2023/10/21 05:41:15;;;;;;;8.63;3.10;;;12.90;99.90;;;;;;5091777;28;20235;-80
2023/10/21 05:43:40;;;;;;;9.33;3.20;;;12.90;99.90;;;;;;5093955;28;20194;-81
2023/10/21 05:46:06;;;;;;;7.87;3.10;;;12.90;99.90;;;;;;5081698;28;20190;-81
2023/10/21 05:48:31;;;;;;;5.83;3.00;;;12.80;99.90;;;;;;5075348;28;20183;-81
2023/10/21 05:51:01;;;;;;;5.23;3.10;;;13.00;99.90;;;;;;5075398;28;20205;-81
2023/10/21 05:53:27;;;;;;;5.27;3.27;;;12.80;99.90;;;;;;5074774;28;20231;-80
2023/10/21 05:55:55;;;;;;;7.60;2.83;;;12.80;99.90;;;;;;5074899;28;20186;-81
2023/10/21 05:58:20;;;;;;;8.90;3.10;;;12.70;99.90;;;;;;5075549;28;20267;-80
2023/10/21 06:00:46;;;;;;;6.13;2.80;;;12.70;99.90;;;;;;5074008;28;20634;-81
2023/10/21 06:03:11;;;;;;;5.20;2.77;;;12.70;99.90;;;;;;5075047;28;20195;-81
2023/10/21 06:05:37;;;;;;;5.80;2.80;;;12.60;99.90;;;;;;5074719;28;20175;-81
2023/10/21 06:08:07;;;;;;;6.80;2.90;;;12.60;99.90;;;;;;5077830;28;20543;-81
2023/10/21 06:10:32;;;;;;;5.40;2.70;;;12.60;99.90;;;;;;5075680;28;20181;-82
2023/10/21 06:12:58;;;;;;;5.93;3.00;;;12.60;99.90;;;;;;5073431;28;20199;-81
2023/10/21 06:15:23;;;;;;;8.13;2.70;;;12.70;99.90;;;;;;5075499;28;20167;-80
2023/10/21 06:17:51;;;;;;;9.03;3.10;;;12.70;99.90;;;;;;5073547;28;20175;-80
2023/10/21 06:20:17;;;;;;;4.30;2.80;;;12.70;99.90;;;;;;5075251;28;20175;-82
2023/10/21 06:22:43;;;;;;;5.17;2.87;;;12.70;99.90;;;;;;5075232;28;20399;-81
2023/10/21 06:25:10;;;;;;;4.33;2.50;;;12.70;99.90;;;;;;5074997;28;20175;-81
2023/10/21 06:27:36;;;;;;;5.70;2.70;;;12.70;99.90;;;;;;5073796;28;20262;-81
2023/10/21 06:30:03;;;;;;;5.27;3.00;;;12.70;99.90;;;;;;5075032;28;20182;-81
2023/10/21 06:32:28;;;;;;;4.83;3.40;;;12.70;99.90;;;;;;5074675;28;20213;-82
2023/10/21 06:34:54;;;;;;;8.87;4.10;;;12.90;99.90;;;;;;5074805;28;20254;-81
2023/10/21 06:37:20;;;;;;;6.50;3.87;;;12.80;99.90;;;;;;5073393;28;20182;-82
2023/10/21 06:39:45;;;;;;;11.30;3.77;;;12.80;99.90;;;;;;5075474;28;20197;-82
2023/10/21 06:42:11;;;;;;;10.50;3.87;;;12.80;99.90;;;;;;5078002;28;20204;-82
2023/10/21 06:44:36;;;;;;;5.03;3.70;;;12.80;99.90;;;;;;5078442;28;20178;-82
2023/10/21 06:47:02;;;;;;;12.27;4.07;;;12.80;99.90;;;;;;5078582;28;20183;-82
2023/10/21 06:49:27;;;;;;;7.23;4.07;;;12.90;99.90;;;;;;5080565;28;20178;-81
2023/10/21 06:51:55;;;;;;;9.30;4.90;;;12.90;99.90;;;;;;5082466;28;20597;-82
2023/10/21 06:54:21;;;;;;;6.47;4.80;;;12.90;99.90;;;;;;5081363;28;20194;-83
2023/10/21 06:56:47;;;;;;;6.53;5.13;;;13.00;99.90;;;;;;5086669;28;20228;-82
2023/10/21 06:59:15;;;;;;;7.17;5.40;;;13.00;99.90;;;;;;5083161;28;20592;-82
2023/10/21 07:01:41;;;;;;;7.97;5.50;;;13.00;99.90;;;;;;5086254;28;20240;-82
2023/10/21 07:04:10;;;;;;;10.10;6.13;;;13.00;99.90;;;;;;5086535;28;20745;-82
2023/10/21 07:06:36;;;;;;;9.83;7.60;;;13.00;99.90;;;;;;5080227;28;20578;-81
2023/10/21 07:09:02;;;;;;;8.50;5.03;;;13.10;99.90;;;;;;5080074;28;20183;-81
2023/10/21 07:11:28;;;;;;;9.23;5.10;;;13.10;99.90;;;;;;5080961;28;20524;-82
2023/10/21 07:13:53;;;;;;;6.20;4.33;;;13.10;99.90;;;;;;5081173;28;20194;-81
2023/10/21 07:16:19;;;;;;;7.37;5.53;;;13.10;99.90;;;;;;5079132;28;20174;-81
2023/10/21 07:18:45;;;;;;;5.50;4.93;;;13.10;99.90;;;;;;5081287;28;20175;-81
2023/10/21 07:21:10;;;;;;;7.10;3.27;;;13.20;99.90;;;;;;5079639;28;20190;-81
2023/10/21 07:23:36;;;;;;;3.60;2.63;;;13.20;99.90;;;;;;5079627;28;20205;-81
2023/10/21 07:26:02;;;;;;;5.40;2.70;;;13.20;99.90;;;;;;5079767;28;20183;-81
2023/10/21 07:28:28;;;;;;;5.33;3.40;;;13.20;99.90;;;;;;5081295;28;20191;-82
2023/10/21 07:30:54;;;;;;;6.53;2.90;;;13.30;99.90;;;;;;5082497;28;20206;-81
2023/10/21 07:33:22;;;;;;;6.50;3.30;;;13.30;99.90;;;;;;5084329;28;20199;-80
2023/10/21 07:35:50;;;;;;;3.20;2.67;;;13.50;99.90;;;;;;5085543;28;20179;-81
2023/10/21 07:38:16;;;;;;;5.77;3.23;;;13.30;99.90;;;;;;5085542;28;20178;-81
2023/10/21 07:40:43;;;;;;;5.20;2.90;;;13.40;99.90;;;;;;5084055;28;20187;-80
2023/10/21 07:43:09;;;;;;;3.97;2.63;;;13.40;99.90;;;;;;5082130;28;20195;-80
2023/10/21 07:45:35;;;;;;;3.20;2.33;;;13.30;99.90;;;;;;5085161;28;20633;-81
2023/10/21 07:48:02;;;;;;;4.43;2.33;;;13.40;99.90;;;;;;5083860;28;20171;-80
2023/10/21 07:50:27;;;;;;;3.50;2.47;;;13.40;99.90;;;;;;5084383;28;20163;-80
2023/10/21 07:52:53;;;;;;;3.73;2.73;;;13.40;99.90;;;;;;5083458;28;20214;-81
2023/10/21 07:55:19;;;;;;;5.67;3.00;;;13.40;99.90;;;;;;5083147;28;20178;-81
2023/10/21 07:57:44;;;;;;;6.23;3.30;;;13.50;99.90;;;;;;5087174;28;20179;-80
2023/10/21 08:00:13;;;;;;;5.13;2.20;;;13.50;99.90;;;;;;5084621;28;20171;-81
2023/10/21 08:02:40;;;;;;;6.30;2.10;;;13.60;99.90;;;;;;5083150;28;20315;-81
2023/10/21 08:05:07;;;;;;;2.60;1.40;;;13.60;99.90;;;;;;5084740;28;20175;-81
2023/10/21 08:07:33;;;;;;;3.80;1.37;;;13.60;99.90;;;;;;5082523;28;20193;-81
2023/10/21 08:09:59;;;;;;;1.70;1.03;;;13.60;99.90;;;;;;5082955;28;20185;-81
2023/10/21 08:12:25;;;;;;;3.27;1.10;;;13.60;99.90;;;;;;5084426;28;20214;-81
2023/10/21 08:14:50;;;;;;;1.80;1.00;;;13.60;99.90;;;;;;5082419;28;20266;-80
2023/10/21 08:17:17;;;;;;;5.20;1.00;;;13.50;99.90;;;;;;5082834;28;20181;-80
2023/10/21 08:19:43;;;;;;;3.63;0.93;;;13.50;99.90;;;;;;5085041;28;20167;-81
2023/10/21 08:22:09;;;;;;;1.23;0.80;;;13.50;99.90;;;;;;5082823;28;20182;-80
2023/10/21 08:24:34;;;;;;;2.40;0.70;;;13.50;99.90;;;;;;5082251;28;20175;-80
2023/10/21 08:27:00;;;;;;;2.10;0.83;;;13.50;99.90;;;;;;5082364;28;20185;-80
2023/10/21 08:29:26;;;;;;;2.03;0.80;;;13.50;99.90;;;;;;5083750;28;20197;-80
2023/10/21 08:31:51;;;;;;;2.20;0.50;;;13.50;99.90;;;;;;5083160;28;20256;-80
2023/10/21 08:34:17;;;;;;;2.33;0.60;;;13.50;99.90;;;;;;5084286;28;20326;-80
2023/10/21 08:36:43;;;;;;;0.83;0.50;;;13.60;99.90;;;;;;5083756;28;20170;-81
2023/10/21 08:39:08;;;;;;;1.43;0.50;;;13.40;99.90;;;;;;5084098;28;20684;-78
2023/10/21 08:41:38;;;;;;;3.00;0.63;;;13.50;99.90;;;;;;5084669;28;20167;-79
2023/10/21 08:44:05;;;;;;;0.60;0.50;;;13.50;99.90;;;;;;5085064;28;20190;-80
2023/10/21 08:46:35;;;;;;;0.80;0.50;;;13.60;99.90;;;;;;5084086;28;20183;-79
2023/10/21 08:49:05;;;;;;;1.07;0.43;;;13.50;99.90;;;;;;5086893;28;20188;-79
2023/10/21 08:51:33;;;;;;;5.40;0.67;;;13.60;99.90;;;;;;5087788;28;20205;-79
2023/10/21 08:54:03;;;;;;;2.23;0.60;;;13.60;99.90;;;;;;5085984;28;20248;-79
2023/10/21 08:56:29;;;;;;;0.50;0.37;;;13.70;99.90;;;;;;5084796;28;20158;-79
2023/10/21 08:58:56;;;;;;;2.77;0.90;;;13.60;99.90;;;;;;5083553;28;20242;-79
2023/10/21 09:01:23;;;;;;;1.23;0.40;;;13.60;99.90;;;;;;5084703;28;20186;-79
2023/10/21 09:03:49;;;;;;;0.47;0.30;;;13.70;99.90;;;;;;5083773;28;20202;-79
2023/10/21 09:06:17;;;;;;;1.10;0.57;;;13.70;99.90;;;;;;5085231;28;20167;-79
2023/10/21 09:08:44;;;;;;;1.87;0.60;;;13.70;99.90;;;;;;5087004;28;20167;-79
2023/10/21 09:11:11;;;;;;;1.37;0.40;;;13.80;99.90;;;;;;5089192;28;20199;-79
2023/10/21 09:13:39;;;;;;;1.13;0.60;;;13.80;99.90;;;;;;5087460;28;20195;-79
2023/10/21 09:16:21;;;;;;;1.67;0.50;;;13.80;99.90;;;;;;5081300;28;20174;-79
2023/10/21 09:19:03;;;;;;;1.87;0.60;;;13.90;99.90;;;;;;5078767;28;20155;-78
2023/10/21 09:21:40;;;;;;;1.90;0.40;;;13.90;99.90;;;;;;5075144;28;20163;-78
2023/10/21 09:24:12;;;;;;;2.30;0.50;;;13.80;99.90;;;;;;5077893;28;20239;-77
2023/10/21 09:26:40;;;;;;;2.43;0.40;;;13.80;99.90;;;;;;5079678;28;20151;-78
2023/10/21 09:29:07;;;;;;;3.47;0.53;;;13.80;99.90;;;;;;5078735;28;20194;-78
2023/10/21 09:31:51;;;;;;;2.73;0.80;;;13.80;99.90;;;;;;5078472;28;20222;-79
2023/10/21 09:34:27;;;;;;;4.10;0.60;;;13.80;99.90;;;;;;5078726;28;20278;-79
2023/10/21 09:36:54;;;;;;;1.70;0.60;;;13.80;99.90;;;;;;5079412;28;20171;-78
2023/10/21 09:39:24;;;;;;;1.80;0.60;;;13.80;99.90;;;;;;5079948;28;20240;-79
2023/10/21 09:41:50;;;;;;;2.10;0.50;;;13.90;99.90;;;;;;5079532;28;20303;-79
2023/10/21 09:44:17;;;;;;;2.77;0.63;;;13.90;99.90;;;;;;5079676;28;20194;-78
2023/10/21 09:46:47;;;;;;;1.67;0.67;;;13.80;99.90;;;;;;5079336;28;20274;-79
2023/10/21 09:49:14;;;;;;;1.13;0.67;;;13.90;99.90;;;;;;5077346;28;20246;-79
2023/10/21 09:52:17;;;;;;;5.40;0.60;;;13.90;99.90;;;;;;5079773;28;20282;-79
2023/10/21 09:55:02;;;;;;;0.70;0.50;;;14.00;99.90;;;;;;5068578;28;20178;-79
2023/10/21 09:57:29;;;;;;;6.13;0.60;;;14.00;99.90;;;;;;5079906;28;20151;-79
2023/10/21 09:59:56;;;;;;;2.63;0.90;;;14.20;99.90;;;;;;5079624;28;20239;-79
2023/10/21 10:02:22;;;;;;;2.30;0.60;;;14.40;99.90;;;;;;5081031;28;20197;-79
2023/10/21 10:04:49;;;;;;;3.07;0.80;;;14.40;99.90;;;;;;5082156;28;20233;-79
2023/10/21 10:07:17;;;;;;;5.40;0.60;;;14.50;99.90;;;;;;5080547;28;20167;-79
2023/10/21 10:09:44;;;;;;;2.77;0.77;;;14.50;99.90;;;;;;5079627;28;20175;-79
2023/10/21 10:12:17;;;;;;;2.80;0.70;;;14.60;99.90;;;;;;5078529;28;20234;-79
2023/10/21 10:14:43;;;;;;;3.30;0.70;;;14.70;99.90;;;;;;5078054;28;20171;-78
2023/10/21 10:17:09;;;;;;;4.03;1.03;;;14.50;99.90;;;;;;5081215;28;20267;-78
2023/10/21 10:19:40;;;;;;;3.77;0.90;;;14.60;99.90;;;;;;5081852;28;20470;-79
2023/10/21 10:22:30;;;;;;;3.53;0.60;;;14.60;99.90;;;;;;5082158;28;20205;-78
2023/10/21 10:25:04;;;;;;;3.50;0.73;;;14.60;99.90;;;;;;5084234;28;20163;-79
2023/10/21 10:27:38;;;;;;;2.77;0.60;;;14.50;99.90;;;;;;5083938;28;20158;-79
2023/10/21 10:30:08;;;;;;;2.83;0.80;;;14.50;99.90;;;;;;5081584;28;20205;-78
2023/10/21 10:32:43;;;;;;;4.07;1.13;;;14.50;99.90;;;;;;5083608;28;20279;-79
2023/10/21 10:35:08;;;;;;;1.17;0.57;;;14.60;99.90;;;;;;5082599;28;20200;-79
2023/10/21 10:37:35;;;;;;;3.50;0.73;;;14.60;99.90;;;;;;5082786;28;20179;-79
2023/10/21 10:40:15;;;;;;;2.33;0.70;;;14.60;99.90;;;;;;5082194;28;20171;-78
2023/10/21 10:42:40;;;;;;;2.43;0.73;;;14.70;99.90;;;;;;5085073;28;20199;-79
2023/10/21 10:45:06;;;;;;;4.37;0.80;;;14.60;99.90;;;;;;5085320;28;20185;-79
2023/10/21 10:47:32;;;;;;;1.43;0.50;;;14.60;99.90;;;;;;5084278;28;20175;-79
2023/10/21 10:50:00;;;;;;;2.90;0.60;;;14.60;99.90;;;;;;5082249;28;20179;-79
2023/10/21 10:52:33;;;;;;;5.33;0.80;;;14.70;99.90;;;;;;5083469;28;20254;-81
2023/10/21 10:54:59;;;;;;;4.03;0.73;;;14.70;99.90;;;;;;5085202;28;20166;-80
2023/10/21 10:57:28;;;;;;;2.57;0.50;;;14.80;99.90;;;;;;5087020;28;20167;-80
2023/10/21 10:59:54;;;;;;;3.43;1.07;;;14.70;99.90;;;;;;5086527;28;20214;-80
2023/10/21 11:02:20;;;;;;;4.43;0.40;;;14.80;99.90;;;;;;5084260;28;20199;-79
2023/10/21 11:04:49;;;;;;;4.80;0.60;;;14.90;99.90;;;;;;5083248;28;20655;-79
2023/10/21 11:07:21;;;;;;;5.23;1.00;;;15.00;99.90;;;;;;5081827;28;20178;-79
2023/10/21 11:09:57;;;;;;;2.10;0.70;;;15.00;99.90;;;;;;5084498;28;20215;-80
2023/10/21 11:12:24;;;;;;;1.97;0.80;;;15.00;99.90;;;;;;5081328;28;20378;-77
2023/10/21 11:14:49;;;;;;;5.80;0.80;;;15.00;99.90;;;;;;5078865;28;20171;-77
2023/10/21 11:17:17;;;;;;;2.13;0.60;;;15.00;99.90;;;;;;5076545;28;20294;-78
2023/10/21 11:19:43;;;;;;;1.43;0.60;;;15.00;99.90;;;;;;5079028;28;20171;-77
2023/10/21 11:22:25;;;;;;;2.00;0.70;;;15.00;99.90;;;;;;5079795;28;20506;-77
2023/10/21 11:24:51;;;;;;;4.67;0.77;;;15.00;99.90;;;;;;5087597;28;20669;-78
2023/10/21 11:27:17;;;;;;;4.13;0.93;;;15.00;99.90;;;;;;5078851;28;20199;-79
2023/10/21 11:29:43;;;;;;;3.73;0.80;;;15.00;99.90;;;;;;5082195;28;20733;-79
2023/10/21 11:32:14;;;;;;;5.00;0.80;;;15.00;99.90;;;;;;5082511;28;20590;-80
2023/10/21 11:34:44;;;;;;;4.47;0.83;;;15.00;99.90;;;;;;5083926;28;20175;-79
2023/10/21 11:37:11;;;;;;;2.57;0.80;;;15.00;99.90;;;;;;5085426;28;20171;-79
2023/10/21 11:39:40;;;;;;;2.57;0.70;;;15.00;99.90;;;;;;5085546;28;20205;-79
2023/10/21 11:42:15;;;;;;;3.63;0.70;;;14.90;99.90;;;;;;5106303;28;20179;-79
2023/10/21 11:44:41;;;;;;;4.40;0.97;;;14.90;99.90;;;;;;5106776;28;20559;-80
2023/10/21 11:47:07;;;;;;;2.10;1.00;;;15.00;99.90;;;;;;5108444;28;20178;-79
2023/10/21 11:49:33;;;;;;;1.60;0.70;;;15.10;99.90;;;;;;5104599;28;20570;-78
2023/10/21 11:52:00;;;;;;;1.97;0.60;;;15.10;99.90;;;;;;5099728;28;20562;-78
2023/10/21 11:54:43;;;;;;;5.50;0.83;;;15.10;99.90;;;;;;5101993;28;20178;-78
2023/10/21 12:09:23;;;;;;;3.50;1.20;;;14.90;99.90;;;;;;5066483;28;20159;-78
2023/10/21 12:11:42;;;;;;;3.70;1.00;;;15.00;99.90;;;;;;5063464;28;20588;-78
2023/10/21 12:16:56;;;;;;;2.77;1.13;;;15.00;1.00;;;;;;5106942;28;20233;-78
2023/10/21 12:22:47;;;;;;;6.83;1.60;;;15.30;99.90;;;;;;5103261;28;20208;-77
2023/10/21 12:38:23;;;;;;;5.33;1.30;;;15.40;1.00;;;;;;5097271;28;20190;-77
2023/10/21 12:41:25;;;;;;;4.50;1.30;;;15.40;1.00;;;;;;5099684;28;20151;-77
2023/10/21 12:43:47;;;;;;;7.30;1.10;;;15.40;1.00;;;;;;5090390;28;20646;-77
2023/10/21 12:46:24;;;;;;;4.37;1.20;;;15.70;1.00;;;;;;5077187;28;20151;-78
2023/10/21 12:48:54;;;;;;;3.63;1.30;;;15.50;1.00;;;;;;5077188;28;20190;-78
2023/10/21 12:51:21;;;;;;;2.30;0.90;;;15.60;1.00;;;;;;5076512;28;20203;-78
2023/10/21 12:53:47;;;;;;;3.77;1.27;;;15.70;99.90;;;;;;5076207;28;20197;-78
2023/10/21 12:56:13;;;;;;;6.10;1.40;;;15.70;1.00;;;;;;5076820;28;20591;-78
2023/10/21 12:58:40;;;;;;;5.07;1.33;;;16.00;1.00;;;;;;5074635;28;20543;-78
2023/10/21 13:01:09;;;;;;;5.23;1.40;;;15.90;99.90;;;;;;5089765;28;20193;-78
2023/10/21 13:03:36;;;;;;;6.93;1.60;;;16.00;1.00;;;;;;5098142;28;20274;-77
2023/10/21 13:06:02;;;;;;;5.73;1.30;;;16.00;99.90;;;;;;5095446;28;20182;-78
2023/10/21 13:08:28;;;;;;;5.53;1.67;;;16.10;1.00;;;;;;5097582;28;20178;-77
2023/10/21 13:10:56;;;;;;;5.43;1.53;;;16.20;99.90;;;;;;5094048;28;20231;-79
2023/10/21 13:13:22;;;;;;;11.40;1.80;;;16.30;1.00;;;;;;5096840;28;20236;-79
2023/10/21 13:15:47;;;;;;;4.60;1.40;;;16.30;99.90;;;;;;5096108;28;20175;-78
2023/10/21 13:18:13;;;;;;;7.17;1.77;;;16.30;1.00;;;;;;5096960;28;20211;-78
2023/10/21 13:20:41;;;;;;;4.97;1.40;;;16.40;37.10;;;;;;5097726;28;20591;-78